Time;durP1;ratioP1;P1;durP2;ratioP2;P2;SDS_P1;SDS_P2;PMS_P1;PMS_P2;Temp;Humidity;BMP_temperature;BMP_pressure;BME280_temperature;BME280_humidity;BME280_pressure;Samples;Min_cycle;Max_cycle;Signal;HPM_P1;HPM_P2
2021/09/18 00:00:06;;;;;;;32.65;24.50;;;15.30;90.00;;;;;;5052083;28;20385;-48
2021/09/18 00:02:31;;;;;;;33.58;26.17;;;15.30;90.00;;;;;;5054008;28;20033;-50
2021/09/18 00:04:57;;;;;;;35.58;25.30;;;15.30;89.90;;;;;;5053292;28;20028;-47
2021/09/18 00:07:23;;;;;;;35.25;26.52;;;15.40;89.80;;;;;;5053271;28;20052;-48
2021/09/18 00:09:49;;;;;;;38.20;27.33;;;15.40;89.60;;;;;;5052229;28;20056;-49
2021/09/18 00:12:14;;;;;;;38.10;26.50;;;15.30;89.90;;;;;;5053266;28;20032;-48
2021/09/18 00:14:40;;;;;;;36.90;28.63;;;15.30;89.90;;;;;;5053267;28;20017;-52
2021/09/18 00:17:07;;;;;;;42.95;28.25;;;15.20;90.00;;;;;;5053228;28;20040;-49
2021/09/18 00:19:34;;;;;;;37.35;26.60;;;15.20;90.50;;;;;;5053058;28;20025;-47
2021/09/18 00:21:59;;;;;;;36.85;27.00;;;15.20;90.60;;;;;;5053023;28;20079;-49
2021/09/18 00:24:25;;;;;;;42.28;28.75;;;15.20;90.50;;;;;;5053394;28;20037;-48
2021/09/18 00:26:51;;;;;;;39.92;29.60;;;15.30;90.30;;;;;;5051860;28;20359;-49
2021/09/18 00:29:16;;;;;;;39.90;28.75;;;15.30;90.40;;;;;;5053145;28;20025;-48
2021/09/18 00:31:43;;;;;;;42.15;30.23;;;15.30;90.30;;;;;;5053043;28;20044;-49
2021/09/18 00:34:09;;;;;;;47.83;31.67;;;15.30;90.40;;;;;;5052952;28;20445;-51
2021/09/18 00:36:35;;;;;;;39.67;30.60;;;15.30;90.40;;;;;;5053066;28;20053;-48
2021/09/18 00:39:01;;;;;;;37.20;27.15;;;15.30;90.40;;;;;;5052824;28;20035;-48
2021/09/18 00:41:27;;;;;;;40.25;28.42;;;15.30;90.40;;;;;;5052710;28;20071;-50
2021/09/18 00:43:54;;;;;;;39.40;27.52;;;15.30;90.50;;;;;;5053142;28;20101;-50
2021/09/18 00:46:20;;;;;;;36.22;26.83;;;15.20;90.40;;;;;;5053275;28;20075;-49
2021/09/18 00:48:47;;;;;;;41.13;27.60;;;15.20;90.50;;;;;;5052793;28;20020;-48
2021/09/18 00:51:13;;;;;;;41.10;27.48;;;15.10;90.70;;;;;;5053007;28;20473;-51
2021/09/18 00:53:39;;;;;;;41.50;26.83;;;15.20;90.80;;;;;;5052745;28;20029;-52
2021/09/18 00:56:05;;;;;;;37.00;26.60;;;15.20;90.80;;;;;;5052596;28;20032;-48
2021/09/18 00:58:31;;;;;;;38.50;28.75;;;15.20;90.80;;;;;;5052584;28;20029;-48
2021/09/18 01:00:57;;;;;;;39.55;29.17;;;15.20;90.70;;;;;;5055315;28;20404;-48
2021/09/18 01:03:22;;;;;;;38.92;29.27;;;15.20;90.70;;;;;;5056982;28;20107;-52
2021/09/18 01:05:48;;;;;;;41.30;29.52;;;15.20;90.60;;;;;;5056607;28;20025;-48
2021/09/18 01:08:14;;;;;;;45.10;31.38;;;15.30;90.50;;;;;;5056398;28;20021;-49
2021/09/18 01:10:39;;;;;;;52.70;35.40;;;15.30;90.30;;;;;;5056745;28;20029;-48
2021/09/18 01:13:12;;;;;;;48.28;32.92;;;15.30;90.30;;;;;;5055024;28;20039;-53
2021/09/18 01:15:38;;;;;;;44.45;31.88;;;15.30;90.20;;;;;;5056668;28;20385;-48
2021/09/18 01:18:06;;;;;;;40.85;31.75;;;15.30;90.20;;;;;;5056153;28;20045;-49
2021/09/18 01:20:33;;;;;;;41.33;30.58;;;15.20;90.30;;;;;;5056215;28;20107;-49
2021/09/18 01:23:00;;;;;;;38.65;29.23;;;15.20;90.40;;;;;;5056264;28;20029;-48
2021/09/18 01:25:29;;;;;;;40.20;28.25;;;15.10;90.40;;;;;;5056418;28;20495;-49
2021/09/18 01:27:54;;;;;;;42.47;29.83;;;15.00;90.60;;;;;;5056075;28;20057;-48
2021/09/18 01:30:27;;;;;;;40.38;27.92;;;15.00;90.80;;;;;;5055975;28;20061;-48
2021/09/18 01:32:53;;;;;;;45.05;29.23;;;15.00;90.90;;;;;;5054677;28;20021;-48
2021/09/18 01:35:19;;;;;;;44.17;30.73;;;14.90;90.80;;;;;;5056068;28;20337;-48
2021/09/18 01:37:47;;;;;;;44.72;30.65;;;14.90;90.90;;;;;;5056131;28;20421;-49
2021/09/18 01:40:22;;;;;;;44.35;31.90;;;14.80;91.00;;;;;;5054712;28;20419;-47
2021/09/18 01:42:48;;;;;;;47.67;32.00;;;14.90;91.10;;;;;;5056094;28;20103;-48
2021/09/18 01:45:15;;;;;;;53.40;36.60;;;15.00;91.10;;;;;;5055953;28;20025;-48
2021/09/18 01:47:47;;;;;;;50.20;38.00;;;14.90;91.00;;;;;;5054597;28;20025;-47
2021/09/18 01:50:29;;;;;;;45.15;32.50;;;14.90;91.20;;;;;;5055907;28;20057;-49
2021/09/18 01:53:03;;;;;;;37.53;28.63;;;14.90;91.20;;;;;;5055799;28;20056;-48
2021/09/18 01:55:29;;;;;;;38.08;27.30;;;14.80;90.90;;;;;;5056118;28;20058;-48
2021/09/18 01:57:57;;;;;;;35.45;27.58;;;14.70;91.10;;;;;;5055981;28;20111;-52
2021/09/18 02:00:23;;;;;;;37.42;24.90;;;14.70;91.30;;;;;;5054529;28;20028;-49
2021/09/18 02:02:49;;;;;;;37.42;28.40;;;14.70;91.40;;;;;;5055875;28;20029;-47
2021/09/18 02:05:18;;;;;;;36.15;28.05;;;14.70;91.40;;;;;;5055845;28;20480;-49
2021/09/18 02:07:44;;;;;;;41.42;29.52;;;14.80;91.40;;;;;;5055904;28;20039;-48
2021/09/18 02:10:13;;;;;;;39.25;29.17;;;14.80;91.40;;;;;;5055492;28;20444;-47
2021/09/18 02:12:38;;;;;;;35.88;26.98;;;14.80;91.30;;;;;;5055803;28;20107;-48
2021/09/18 02:15:06;;;;;;;36.22;26.90;;;14.80;91.20;;;;;;5055753;28;20040;-49
2021/09/18 02:17:32;;;;;;;38.03;28.52;;;14.80;91.30;;;;;;5055420;28;20460;-48
2021/09/18 02:19:57;;;;;;;40.33;27.92;;;14.70;91.40;;;;;;5055244;28;20033;-49
2021/09/18 02:22:23;;;;;;;40.95;28.85;;;14.60;91.50;;;;;;5055634;28;20021;-48
2021/09/18 02:24:48;;;;;;;44.97;32.15;;;14.60;91.70;;;;;;5055310;28;20512;-48
2021/09/18 02:27:14;;;;;;;45.42;30.42;;;14.50;91.70;;;;;;5055276;28;20032;-48
2021/09/18 02:29:40;;;;;;;43.80;30.73;;;14.50;91.90;;;;;;5056091;28;20037;-49
2021/09/18 02:32:06;;;;;;;45.30;31.27;;;14.50;92.00;;;;;;5055140;28;20021;-48
2021/09/18 02:34:32;;;;;;;39.45;28.35;;;14.40;92.00;;;;;;5055348;28;20025;-48
2021/09/18 02:36:57;;;;;;;41.25;30.42;;;14.40;92.10;;;;;;5055067;28;20413;-50
2021/09/18 02:39:23;;;;;;;40.63;30.42;;;14.30;92.10;;;;;;5055280;28;20033;-48
2021/09/18 02:41:49;;;;;;;44.55;30.38;;;14.30;92.10;;;;;;5054841;28;20035;-48
2021/09/18 02:44:15;;;;;;;46.90;30.95;;;14.20;92.30;;;;;;5053694;28;20036;-47
2021/09/18 02:46:40;;;;;;;40.97;28.20;;;14.20;92.50;;;;;;5054947;28;20017;-49
2021/09/18 02:49:06;;;;;;;39.17;29.08;;;14.20;92.70;;;;;;5055229;28;20056;-48
2021/09/18 02:51:32;;;;;;;37.83;28.38;;;14.20;92.70;;;;;;5055071;28;20381;-48
2021/09/18 02:53:59;;;;;;;39.83;25.35;;;14.20;92.60;;;;;;5055111;28;20017;-51
2021/09/18 02:56:25;;;;;;;36.75;26.15;;;14.10;92.50;;;;;;5054680;28;20033;-49
2021/09/18 02:58:51;;;;;;;34.28;26.15;;;14.10;92.40;;;;;;5053362;28;20085;-50
2021/09/18 03:01:17;;;;;;;39.75;27.25;;;14.10;92.30;;;;;;5054659;28;20422;-48
2021/09/18 03:03:42;;;;;;;37.10;26.67;;;14.10;92.30;;;;;;5055054;28;20028;-49
2021/09/18 03:06:08;;;;;;;37.08;27.23;;;14.10;92.20;;;;;;5054642;28;20021;-48
2021/09/18 03:08:34;;;;;;;36.40;27.10;;;14.20;92.10;;;;;;5054401;28;20029;-49
2021/09/18 03:10:59;;;;;;;39.20;27.38;;;14.10;92.10;;;;;;5054648;28;20033;-49
2021/09/18 03:13:25;;;;;;;40.88;28.95;;;14.10;92.20;;;;;;5054393;28;20048;-50
2021/09/18 03:15:51;;;;;;;44.05;29.13;;;14.10;92.20;;;;;;5054591;28;20078;-49
2021/09/18 03:18:16;;;;;;;46.25;31.20;;;14.20;92.30;;;;;;5054093;28;20045;-48
2021/09/18 03:20:42;;;;;;;42.97;29.48;;;14.10;92.40;;;;;;5052735;28;20029;-47
2021/09/18 03:23:08;;;;;;;42.42;32.10;;;14.20;92.40;;;;;;5054059;28;20024;-49
2021/09/18 03:25:35;;;;;;;48.15;33.03;;;14.20;92.50;;;;;;5054414;28;20025;-49
2021/09/18 03:28:01;;;;;;;50.85;32.38;;;14.10;92.60;;;;;;5054414;28;20025;-47
2021/09/18 03:30:27;;;;;;;46.05;33.80;;;14.10;92.60;;;;;;5054099;28;20036;-47
2021/09/18 03:32:53;;;;;;;58.97;35.90;;;14.10;92.70;;;;;;5054307;28;20036;-48
2021/09/18 03:35:18;;;;;;;59.10;38.17;;;14.10;92.90;;;;;;5054170;28;20032;-49
2021/09/18 03:37:44;;;;;;;50.75;35.28;;;14.10;92.90;;;;;;5054233;28;20032;-48
2021/09/18 03:40:11;;;;;;;52.25;33.33;;;14.10;92.80;;;;;;5052388;28;20017;-48
2021/09/18 03:42:37;;;;;;;55.33;35.45;;;14.00;92.70;;;;;;5053214;28;20021;-48
2021/09/18 03:45:04;;;;;;;49.72;34.47;;;13.90;92.80;;;;;;5053048;28;20037;-50
2021/09/18 03:47:30;;;;;;;52.35;37.47;;;13.90;92.90;;;;;;5053280;28;20025;-50
2021/09/18 03:49:55;;;;;;;60.47;39.83;;;14.00;93.10;;;;;;5053288;28;20079;-48
2021/09/18 03:52:25;;;;;;;56.35;40.85;;;14.00;93.10;;;;;;5053178;28;20043;-52
2021/09/18 03:54:51;;;;;;;67.37;42.07;;;13.90;93.10;;;;;;5053398;28;20032;-47
2021/09/18 03:57:16;;;;;;;68.28;39.53;;;13.90;93.20;;;;;;5053041;28;20028;-47
2021/09/18 03:59:42;;;;;;;65.18;41.63;;;13.90;93.40;;;;;;5053082;28;20021;-49
2021/09/18 04:02:08;;;;;;;67.45;42.97;;;13.90;93.50;;;;;;5052863;28;20029;-49
2021/09/18 04:04:33;;;;;;;67.32;42.17;;;13.90;93.30;;;;;;5052889;28;20060;-49
2021/09/18 04:06:59;;;;;;;72.45;45.60;;;13.90;93.30;;;;;;5052855;28;20119;-50
2021/09/18 04:09:24;;;;;;;63.67;42.55;;;13.80;93.40;;;;;;5052720;28;20028;-51
2021/09/18 04:11:50;;;;;;;60.55;41.28;;;13.80;93.40;;;;;;5052929;28;20029;-51
2021/09/18 04:14:16;;;;;;;67.60;40.05;;;13.80;93.50;;;;;;5053081;28;20484;-47
2021/09/18 04:16:42;;;;;;;58.20;40.35;;;13.80;93.50;;;;;;5053341;28;20484;-50
2021/09/18 04:19:07;;;;;;;62.30;40.40;;;13.70;93.50;;;;;;5052894;28;20049;-49
2021/09/18 04:21:33;;;;;;;56.72;39.22;;;13.70;93.60;;;;;;5052921;28;20032;-48
2021/09/18 04:23:58;;;;;;;63.10;39.53;;;13.70;93.60;;;;;;5052962;28;20058;-49
2021/09/18 04:26:24;;;;;;;57.28;36.45;;;13.70;93.60;;;;;;5052886;28;20033;-49
2021/09/18 04:28:50;;;;;;;62.15;39.70;;;13.60;93.60;;;;;;5052922;28;20036;-49
2021/09/18 04:31:16;;;;;;;59.05;34.83;;;13.60;93.60;;;;;;5051511;28;20033;-50
2021/09/18 04:33:41;;;;;;;50.28;34.50;;;13.60;93.50;;;;;;5052811;28;20353;-47
2021/09/18 04:36:07;;;;;;;55.55;36.42;;;13.50;93.40;;;;;;5052501;28;20048;-50
2021/09/18 04:38:33;;;;;;;65.97;40.25;;;13.50;93.50;;;;;;5053009;28;20029;-49
2021/09/18 04:40:59;;;;;;;61.10;34.58;;;13.50;93.50;;;;;;5052698;28;20033;-49
2021/09/18 04:43:25;;;;;;;52.25;33.85;;;13.40;93.50;;;;;;5053023;28;20025;-51
2021/09/18 04:45:51;;;;;;;45.35;32.83;;;13.40;93.40;;;;;;5052939;28;20025;-48
2021/09/18 04:48:17;;;;;;;48.20;31.48;;;13.30;93.40;;;;;;5052965;28;20025;-48
2021/09/18 04:50:43;;;;;;;50.10;34.03;;;13.30;93.50;;;;;;5052629;28;20033;-49
2021/09/18 04:53:09;;;;;;;50.35;33.88;;;13.30;93.40;;;;;;5052570;28;20054;-52
2021/09/18 04:55:35;;;;;;;53.88;36.00;;;13.30;93.50;;;;;;5052562;28;20036;-49
2021/09/18 04:58:00;;;;;;;58.20;38.17;;;13.30;93.50;;;;;;5052560;28;20108;-47
2021/09/18 05:00:26;;;;;;;58.13;38.50;;;13.30;93.60;;;;;;5052501;28;20040;-49
2021/09/18 05:02:51;;;;;;;72.63;40.58;;;13.30;93.70;;;;;;5053082;28;20021;-51
2021/09/18 05:05:17;;;;;;;57.60;37.25;;;13.30;93.70;;;;;;5052503;28;20025;-47
2021/09/18 05:07:43;;;;;;;67.88;42.35;;;13.40;93.50;;;;;;5052437;28;20033;-48
2021/09/18 05:10:10;;;;;;;68.57;41.78;;;13.40;93.60;;;;;;5051851;28;20062;-47
2021/09/18 05:12:36;;;;;;;74.93;43.92;;;13.60;93.50;;;;;;5052466;28;20418;-47
2021/09/18 05:15:02;;;;;;;91.30;47.92;;;13.70;93.20;;;;;;5052552;28;20060;-48
2021/09/18 05:17:28;;;;;;;86.93;49.05;;;13.70;93.10;;;;;;5052074;28;20049;-50
2021/09/18 05:19:54;;;;;;;121.90;51.22;;;13.70;92.90;;;;;;5051962;28;20060;-47
2021/09/18 05:22:19;;;;;;;105.22;51.60;;;13.80;93.00;;;;;;5052603;28;20358;-47
2021/09/18 05:24:45;;;;;;;123.57;51.05;;;13.70;93.00;;;;;;5052387;28;20017;-47
2021/09/18 05:27:10;;;;;;;196.80;57.03;;;13.60;93.30;;;;;;5052284;28;20029;-49
2021/09/18 05:29:37;;;;;;;117.05;54.22;;;13.70;93.50;;;;;;5052368;28;20380;-49
2021/09/18 05:32:03;;;;;;;105.97;52.70;;;13.80;93.40;;;;;;5052258;28;20025;-49
2021/09/18 05:34:29;;;;;;;276.00;61.47;;;13.80;93.40;;;;;;5052349;28;20417;-49
2021/09/18 05:36:55;;;;;;;127.55;52.03;;;13.80;93.60;;;;;;5052208;28;20045;-49
2021/09/18 05:39:20;;;;;;;141.85;53.58;;;13.70;93.50;;;;;;5052697;28;20044;-49
2021/09/18 05:41:46;;;;;;;166.35;55.13;;;13.50;93.70;;;;;;5052093;28;20053;-48
2021/09/18 05:44:12;;;;;;;138.80;50.83;;;13.50;94.10;;;;;;5052455;28;20095;-48
2021/09/18 05:46:37;;;;;;;324.98;68.90;;;13.50;94.20;;;;;;5053324;28;20112;-48
2021/09/18 05:49:03;;;;;;;108.13;50.78;;;13.50;94.40;;;;;;5056334;28;20028;-47
2021/09/18 05:51:29;;;;;;;121.18;52.38;;;13.50;94.40;;;;;;5055820;28;20040;-48
2021/09/18 05:53:55;;;;;;;106.57;48.55;;;13.50;94.40;;;;;;5054459;28;20040;-49
2021/09/18 05:56:21;;;;;;;102.97;50.58;;;13.60;94.60;;;;;;5056042;28;20385;-49
2021/09/18 05:58:47;;;;;;;154.45;54.88;;;13.70;94.60;;;;;;5056343;28;20025;-50
2021/09/18 06:01:12;;;;;;;91.35;52.78;;;13.70;94.40;;;;;;5056582;28;20029;-48
2021/09/18 06:03:38;;;;;;;77.15;46.40;;;13.70;94.50;;;;;;5055745;28;20461;-48
2021/09/18 06:06:04;;;;;;;162.48;52.78;;;13.70;94.50;;;;;;5055956;28;20101;-49
2021/09/18 06:08:30;;;;;;;122.10;52.47;;;13.70;94.60;;;;;;5055749;28;20025;-48
2021/09/18 06:10:55;;;;;;;137.23;47.30;;;13.80;94.50;;;;;;5055815;28;20051;-52
2021/09/18 06:13:21;;;;;;;103.43;48.10;;;13.80;94.50;;;;;;5055697;28;20084;-47
2021/09/18 06:15:47;;;;;;;101.70;51.08;;;13.80;94.20;;;;;;5055309;28;20479;-49
2021/09/18 06:18:12;;;;;;;172.13;53.92;;;13.80;94.20;;;;;;5055320;28;20131;-49
2021/09/18 06:20:38;;;;;;;215.35;59.65;;;14.00;94.40;;;;;;5055359;28;20036;-47
2021/09/18 06:23:04;;;;;;;153.90;55.65;;;14.10;94.40;;;;;;5055307;28;20021;-48
2021/09/18 06:25:29;;;;;;;179.40;55.22;;;14.10;94.00;;;;;;5055314;28;20021;-50
2021/09/18 06:27:55;;;;;;;268.73;56.45;;;14.20;94.00;;;;;;5055364;28;20028;-49
2021/09/18 06:30:21;;;;;;;302.83;60.15;;;14.30;93.90;;;;;;5055227;28;20464;-48
2021/09/18 06:32:46;;;;;;;211.40;54.08;;;14.30;93.40;;;;;;5055228;28;20036;-48
2021/09/18 06:35:12;;;;;;;276.85;59.92;;;14.30;93.30;;;;;;5055108;28;20040;-49
2021/09/18 06:37:43;;;;;;;93.70;47.58;;;14.40;92.80;;;;;;5054893;28;20063;-49
2021/09/18 06:40:10;;;;;;;105.43;45.67;;;14.30;93.10;;;;;;5055111;28;20051;-48
2021/09/18 06:42:35;;;;;;;149.25;57.53;;;14.20;93.20;;;;;;5053372;28;20036;-49
2021/09/18 06:45:01;;;;;;;125.75;49.53;;;14.40;93.30;;;;;;5055152;28;20410;-46
2021/09/18 06:47:27;;;;;;;122.25;48.97;;;14.50;93.10;;;;;;5054952;28;20029;-47
2021/09/18 06:49:53;;;;;;;105.68;46.22;;;14.60;92.80;;;;;;5054892;28;20108;-46
2021/09/18 06:52:19;;;;;;;89.35;46.85;;;14.60;92.40;;;;;;5054879;28;20021;-47
2021/09/18 06:54:45;;;;;;;108.68;44.22;;;14.50;92.50;;;;;;5054624;28;20032;-51
2021/09/18 06:57:11;;;;;;;79.50;46.47;;;14.60;92.60;;;;;;5053651;28;20385;-49
2021/09/18 06:59:38;;;;;;;84.15;49.10;;;14.40;92.50;;;;;;5054600;28;20086;-48
2021/09/18 07:02:05;;;;;;;74.68;47.60;;;14.50;92.80;;;;;;5053021;28;20163;-47
2021/09/18 07:04:30;;;;;;;72.13;47.40;;;14.60;92.70;;;;;;5054182;28;20021;-47
2021/09/18 07:06:56;;;;;;;79.65;48.55;;;14.70;92.50;;;;;;5054438;28;20044;-47
2021/09/18 07:09:22;;;;;;;77.10;46.97;;;14.70;92.30;;;;;;5054087;28;20028;-46
2021/09/18 07:11:47;;;;;;;89.97;48.15;;;14.70;92.10;;;;;;5054053;28;20337;-48
2021/09/18 07:14:13;;;;;;;86.70;52.60;;;14.80;92.20;;;;;;5054318;28;20025;-47
2021/09/18 07:16:39;;;;;;;103.18;49.72;;;15.00;91.50;;;;;;5054141;28;20044;-47
2021/09/18 07:19:04;;;;;;;95.68;46.65;;;14.90;91.50;;;;;;5053909;28;20053;-51
2021/09/18 07:21:30;;;;;;;86.47;46.63;;;14.90;91.30;;;;;;5052692;28;20052;-52
2021/09/18 07:23:56;;;;;;;74.20;46.75;;;14.80;91.80;;;;;;5052851;28;20036;-49
2021/09/18 07:26:21;;;;;;;129.35;52.47;;;14.80;92.10;;;;;;5053829;28;20044;-48
2021/09/18 07:28:47;;;;;;;80.72;49.97;;;14.90;91.90;;;;;;5053455;28;20428;-49
2021/09/18 07:31:13;;;;;;;98.32;47.95;;;15.10;91.50;;;;;;5053645;28;20260;-47
2021/09/18 07:33:38;;;;;;;94.30;47.60;;;15.10;91.10;;;;;;5053630;28;20040;-48
2021/09/18 07:36:04;;;;;;;93.57;47.08;;;15.00;90.90;;;;;;5053760;28;20052;-46
2021/09/18 07:38:30;;;;;;;89.38;48.20;;;15.00;91.30;;;;;;5053784;28;20040;-51
2021/09/18 07:40:56;;;;;;;88.55;47.70;;;14.80;91.60;;;;;;5053758;28;20025;-55
2021/09/18 07:43:23;;;;;;;80.15;48.17;;;14.90;92.00;;;;;;5054052;28;20036;-50
2021/09/18 07:45:50;;;;;;;81.30;50.53;;;14.90;92.00;;;;;;5053467;28;20174;-51
2021/09/18 07:48:16;;;;;;;78.30;49.97;;;15.00;92.20;;;;;;5053745;28;20353;-48
2021/09/18 07:50:42;;;;;;;82.05;47.30;;;15.10;92.00;;;;;;5053428;28;20100;-48
2021/09/18 07:53:08;;;;;;;77.72;46.15;;;15.40;91.50;;;;;;5053380;28;20032;-53
2021/09/18 07:55:34;;;;;;;69.90;44.78;;;15.40;90.70;;;;;;5053745;28;20090;-49
2021/09/18 07:58:02;;;;;;;72.65;44.53;;;15.40;90.90;;;;;;5053230;28;20025;-49
2021/09/18 08:00:28;;;;;;;76.18;47.70;;;15.70;90.60;;;;;;5053196;28;20028;-49
2021/09/18 08:02:55;;;;;;;74.32;46.78;;;15.60;89.80;;;;;;5052960;28;20025;-50
2021/09/18 08:05:22;;;;;;;85.65;49.05;;;15.60;90.40;;;;;;5053457;28;20025;-48
2021/09/18 08:07:48;;;;;;;93.65;48.25;;;15.60;89.70;;;;;;5052970;28;20043;-49
2021/09/18 08:10:14;;;;;;;81.28;50.20;;;15.50;90.40;;;;;;5052747;28;20037;-50
2021/09/18 08:12:44;;;;;;;95.70;54.22;;;15.30;90.90;;;;;;5052752;28;20045;-52
2021/09/18 08:15:10;;;;;;;98.85;55.38;;;15.30;91.50;;;;;;5052760;28;20044;-48
2021/09/18 08:17:36;;;;;;;103.82;57.25;;;15.40;91.20;;;;;;5051457;28;20060;-48
2021/09/18 08:20:03;;;;;;;109.53;56.72;;;15.30;90.90;;;;;;5052400;28;20353;-51
2021/09/18 08:22:29;;;;;;;107.85;60.85;;;15.40;91.00;;;;;;5052754;28;20021;-48
2021/09/18 08:24:56;;;;;;;128.13;64.70;;;15.30;91.30;;;;;;5053051;28;20495;-47
2021/09/18 08:27:22;;;;;;;123.05;65.22;;;15.30;91.20;;;;;;5051301;28;20029;-50
2021/09/18 08:29:48;;;;;;;120.90;64.75;;;15.30;91.90;;;;;;5052752;28;20043;-49
2021/09/18 08:32:13;;;;;;;120.03;64.40;;;15.40;91.60;;;;;;5052592;28;20028;-48
2021/09/18 08:34:39;;;;;;;112.60;63.17;;;15.40;91.10;;;;;;5052316;28;20111;-52
2021/09/18 08:37:05;;;;;;;104.18;59.45;;;15.70;91.00;;;;;;5052512;28;20036;-47
2021/09/18 08:39:35;;;;;;;98.72;57.90;;;15.80;90.90;;;;;;5052606;28;20496;-47
2021/09/18 08:42:01;;;;;;;97.13;58.25;;;16.10;89.70;;;;;;5052469;28;20044;-47
2021/09/18 08:44:27;;;;;;;111.70;63.58;;;16.30;88.00;;;;;;5051909;28;20025;-48
2021/09/18 08:46:53;;;;;;;97.63;60.28;;;16.40;88.10;;;;;;5051801;28;20074;-48
2021/09/18 08:49:19;;;;;;;101.93;59.88;;;16.70;87.40;;;;;;5052259;28;20047;-46
2021/09/18 08:51:44;;;;;;;102.72;60.33;;;16.90;86.20;;;;;;5052233;28;20029;-48
2021/09/18 08:54:10;;;;;;;94.43;58.17;;;16.80;86.80;;;;;;5052297;28;20021;-50
2021/09/18 08:56:38;;;;;;;95.93;56.78;;;16.70;87.00;;;;;;5052201;28;20029;-48
2021/09/18 08:59:04;;;;;;;106.05;62.42;;;16.70;87.00;;;;;;5052488;28;20480;-50
2021/09/18 09:01:33;;;;;;;101.68;61.65;;;16.80;87.20;;;;;;5051876;28;20032;-51
2021/09/18 09:04:02;;;;;;;102.43;59.45;;;16.80;86.80;;;;;;5052512;28;20162;-47
2021/09/18 09:06:42;;;;;;;105.07;59.72;;;17.00;86.10;;;;;;5052391;28;20016;-47
2021/09/18 09:09:08;;;;;;;105.78;61.40;;;17.00;86.20;;;;;;5052698;28;20025;-48
2021/09/18 09:11:34;;;;;;;106.45;62.88;;;17.10;85.60;;;;;;5051697;28;20124;-48
2021/09/18 09:14:01;;;;;;;101.95;63.47;;;17.30;85.30;;;;;;5051444;28;20021;-48
2021/09/18 09:16:28;;;;;;;104.13;59.70;;;17.50;84.70;;;;;;5052524;28;20060;-48
2021/09/18 09:18:55;;;;;;;110.88;62.00;;;17.30;84.70;;;;;;5052052;28;20131;-48
2021/09/18 09:21:27;;;;;;;106.55;63.38;;;17.30;85.00;;;;;;5053721;28;20032;-51
2021/09/18 09:24:13;;;;;;;103.18;64.07;;;17.40;85.10;;;;;;5056340;28;20052;-50
2021/09/18 09:26:41;;;;;;;107.97;62.67;;;17.60;84.50;;;;;;5056549;28;20017;-49
2021/09/18 09:29:07;;;;;;;108.05;62.65;;;18.00;82.50;;;;;;5054995;28;20109;-47
2021/09/18 09:31:36;;;;;;;112.72;63.85;;;18.30;81.60;;;;;;5054884;28;20056;-49
2021/09/18 09:34:14;;;;;;;104.03;61.50;;;19.10;80.10;;;;;;5056136;28;20032;-48
2021/09/18 09:36:49;;;;;;;98.38;60.90;;;20.00;76.40;;;;;;5055329;28;20051;-49
2021/09/18 09:39:21;;;;;;;93.72;59.63;;;21.20;71.60;;;;;;5055492;28;20025;-51
2021/09/18 09:41:53;;;;;;;96.65;58.20;;;21.00;71.50;;;;;;5055584;28;20127;-50
2021/09/18 09:44:24;;;;;;;86.47;56.58;;;21.00;71.00;;;;;;5055767;28;20125;-54
2021/09/18 09:47:08;;;;;;;92.57;59.60;;;20.30;73.10;;;;;;5055668;28;20069;-49
2021/09/18 09:49:56;;;;;;;89.55;57.35;;;20.20;74.30;;;;;;5055834;28;20025;-47
2021/09/18 09:52:23;;;;;;;91.68;55.78;;;20.20;74.20;;;;;;5055633;28;20040;-49
2021/09/18 09:54:54;;;;;;;96.78;59.13;;;20.90;72.60;;;;;;5055939;28;20032;-53
2021/09/18 09:57:20;;;;;;;91.80;55.95;;;20.80;72.00;;;;;;5055558;28;20338;-49
2021/09/18 09:59:46;;;;;;;92.05;55.60;;;21.30;71.00;;;;;;5054889;28;20037;-48
2021/09/18 10:02:12;;;;;;;95.90;55.92;;;21.90;69.00;;;;;;5055356;28;20361;-50
2021/09/18 10:04:38;;;;;;;91.70;57.65;;;22.80;66.00;;;;;;5055921;28;20314;-47
2021/09/18 10:07:06;;;;;;;102.25;60.95;;;22.30;65.50;;;;;;5053965;28;20035;-49
2021/09/18 10:09:34;;;;;;;85.50;54.45;;;22.80;64.80;;;;;;5037309;28;20032;-50
2021/09/18 10:11:59;;;;;;;79.10;49.80;;;22.70;64.50;;;;;;5054879;28;20111;-47
2021/09/18 10:14:27;;;;;;;84.75;54.70;;;22.20;66.00;;;;;;5055178;28;20061;-48
2021/09/18 10:16:56;;;;;;;71.70;44.78;;;22.00;66.90;;;;;;5054985;28;20025;-48
2021/09/18 10:25:18;;;;;;;62.35;39.95;;;23.20;62.90;;;;;;5055002;28;20035;-49
2021/09/18 10:28:20;;;;;;;58.60;38.97;;;23.30;60.60;;;;;;5054784;28;20051;-50
2021/09/18 10:30:47;;;;;;;55.38;36.00;;;22.80;61.70;;;;;;5053428;28;20044;-50
2021/09/18 10:33:42;;;;;;;63.70;40.17;;;23.00;61.60;;;;;;5052638;28;20116;-51
2021/09/18 10:36:09;;;;;;;53.63;33.63;;;22.80;61.30;;;;;;5053802;28;20045;-48
2021/09/18 10:38:43;;;;;;;52.63;32.95;;;22.80;61.10;;;;;;5054951;28;20075;-49
2021/09/18 10:41:16;;;;;;;55.05;33.13;;;22.80;60.80;;;;;;5037449;28;20036;-50
2021/09/18 10:44:00;;;;;;;47.20;27.75;;;22.00;62.70;;;;;;5053672;28;20112;-50
2021/09/18 10:46:59;;;;;;;52.58;33.13;;;22.60;59.60;;;;;;5053425;28;20025;-50
2021/09/18 10:49:43;;;;;;;52.63;33.22;;;21.90;62.10;;;;;;5054406;28;20024;-53
2021/09/18 10:52:18;;;;;;;57.13;33.75;;;21.90;62.50;;;;;;5054915;28;20480;-46
2021/09/18 10:55:10;;;;;;;60.42;36.25;;;22.80;59.60;;;;;;5054369;28;20039;-50
2021/09/18 10:57:42;;;;;;;46.00;29.60;;;22.80;58.90;;;;;;5054155;28;20045;-48
2021/09/18 11:00:22;;;;;;;42.95;28.35;;;23.60;57.80;;;;;;5054590;28;20040;-51
2021/09/18 11:02:52;;;;;;;47.10;32.28;;;24.50;54.50;;;;;;5054090;28;20029;-51
2021/09/18 11:05:20;;;;;;;37.70;26.17;;;24.90;53.50;;;;;;5054502;28;20117;-50
2021/09/18 11:07:51;;;;;;;35.45;24.85;;;25.00;52.80;;;;;;5052871;28;20282;-46
2021/09/18 11:10:19;;;;;;;31.85;22.00;;;25.20;51.50;;;;;;5054049;28;20103;-50
2021/09/18 11:13:07;;;;;;;29.05;21.35;;;25.00;51.20;;;;;;5053893;28;20021;-51
2021/09/18 11:15:39;;;;;;;34.10;23.48;;;25.20;51.30;;;;;;5054499;28;20029;-48
2021/09/18 11:18:16;;;;;;;25.35;20.60;;;24.70;52.20;;;;;;5036303;28;20186;-49
2021/09/18 11:20:43;;;;;;;24.98;19.58;;;24.90;50.40;;;;;;5054236;28;20025;-53
2021/09/18 11:23:09;;;;;;;29.30;20.88;;;25.70;48.40;;;;;;5052373;28;20489;-51
2021/09/18 11:25:43;;;;;;;47.65;24.30;;;26.10;48.00;;;;;;5053474;28;20021;-50
2021/09/18 11:28:10;;;;;;;28.70;20.70;;;25.80;48.50;;;;;;5053927;28;20048;-48
2021/09/18 11:30:42;;;;;;;25.80;18.75;;;25.50;48.80;;;;;;5053532;28;20098;-50
2021/09/18 11:33:08;;;;;;;28.15;21.30;;;25.10;50.80;;;;;;5051992;28;20063;-52
2021/09/18 11:35:36;;;;;;;29.70;22.05;;;25.60;49.90;;;;;;5051869;28;20440;-51
2021/09/18 11:38:06;;;;;;;24.33;18.15;;;24.00;52.70;;;;;;5052409;28;20025;-48
2021/09/18 11:40:33;;;;;;;25.77;19.40;;;22.70;55.30;;;;;;5054002;28;20516;-51
2021/09/18 11:42:59;;;;;;;24.10;19.52;;;21.50;59.90;;;;;;5053164;28;20107;-50
2021/09/18 11:45:26;;;;;;;24.38;18.40;;;21.10;61.70;;;;;;5053108;28;20059;-48
2021/09/18 11:47:59;;;;;;;25.25;17.35;;;21.00;62.10;;;;;;5053198;28;20090;-50
2021/09/18 11:50:33;;;;;;;23.65;16.67;;;21.00;62.20;;;;;;5053198;28;20139;-48
2021/09/18 11:53:00;;;;;;;21.48;15.57;;;20.80;61.60;;;;;;5053543;28;20025;-51
2021/09/18 11:55:26;;;;;;;20.13;15.05;;;20.80;61.30;;;;;;5051726;28;20179;-49
2021/09/18 11:58:31;;;;;;;19.00;14.50;;;21.00;61.80;;;;;;5052778;28;20087;-50
2021/09/18 12:01:05;;;;;;;16.35;13.00;;;22.50;56.60;;;;;;5050578;28;20051;-50
2021/09/18 12:03:34;;;;;;;17.17;13.45;;;23.00;53.20;;;;;;5053009;28;20037;-50
2021/09/18 12:06:08;;;;;;;19.02;13.30;;;23.30;53.80;;;;;;5052773;28;20504;-49
2021/09/18 12:08:35;;;;;;;24.77;15.48;;;23.50;54.40;;;;;;5052942;28;20051;-50
2021/09/18 12:11:02;;;;;;;17.27;13.55;;;24.40;52.40;;;;;;5051128;28;20036;-48
2021/09/18 12:13:28;;;;;;;16.02;12.77;;;24.20;52.40;;;;;;5052658;28;20496;-54
2021/09/18 12:15:58;;;;;;;17.10;12.75;;;25.20;50.70;;;;;;5053340;28;20021;-51
2021/09/18 12:18:28;;;;;;;;;;;26.10;47.70;;;;;;5053345;28;20455;-50
2021/09/18 12:21:07;;;;;;;18.13;13.20;;;26.20;46.80;;;;;;5051077;28;19978;-48
2021/09/18 12:23:49;;;;;;;15.13;11.60;;;25.70;47.90;;;;;;5053112;28;20055;-50
2021/09/18 12:26:18;;;;;;;12.32;10.27;;;25.20;47.50;;;;;;5052520;28;20108;-50
2021/09/18 12:28:44;;;;;;;17.92;14.05;;;24.50;49.40;;;;;;5052695;28;20025;-49
2021/09/18 12:31:23;;;;;;;14.65;11.50;;;24.70;49.60;;;;;;5052584;28;20041;-51
2021/09/18 12:33:50;;;;;;;15.15;11.00;;;24.50;50.20;;;;;;5052897;28;20025;-53